Terminal Aerodrome Forecast
Issued by NWS Hastings, NE

Current Version | Previous Version | Text Only | Print | Product List | Glossary On
Versions: 1 2 3 4 5 6 7 8 9 10 11 12 13
000
FTUS43 KGID 270520
TAFGRI
TAF
KGRI 270520Z 2706/2806 VRB03KT P6SM VCSH OVC005
     FM270800 VRB03KT 1SM BR OVC003
     FM271200 15004KT 1/2SM FG OVC002
     FM271400 16004KT 3SM BR BKN003
     FM271600 16005KT P6SM BKN015 BKN030
     FM271700 16005KT P6SM FEW015 SCT030
     FM272100 17009KT P6SM FEW035 SCT200=

USA.gov is the U.S. government's official web portal to all federal, state and local government web resources and services.